createdAt,value
2018-07-13T00:00:17.553Z,75.04
2018-07-13T00:02:46.829Z,74.98
2018-07-13T00:05:16.178Z,74.41
2018-07-13T00:07:45.454Z,75.14
2018-07-13T00:10:14.739Z,74.61
2018-07-13T00:12:43.972Z,75.02
2018-07-13T00:15:13.331Z,75.04
2018-07-13T00:17:42.593Z,75.84
2018-07-13T00:20:11.855Z,75.64
2018-07-13T00:22:41.223Z,75.68
2018-07-13T00:25:10.487Z,75.87
2018-07-13T00:27:39.777Z,76.85
2018-07-13T00:30:09.103Z,76.30
2018-07-13T00:32:38.402Z,76.78
2018-07-13T00:35:07.876Z,77.12
2018-07-13T00:37:37.207Z,76.96
2018-07-13T00:40:06.584Z,77.35
2018-07-13T00:42:35.924Z,77.60
2018-07-13T00:45:05.283Z,78.24
2018-07-13T00:47:34.555Z,78.15
2018-07-13T00:50:03.871Z,77.96
2018-07-13T00:52:33.154Z,77.23
2018-07-13T00:55:02.420Z,77.22
2018-07-13T00:57:31.733Z,77.95
2018-07-13T01:00:00.996Z,78.11
2018-07-13T01:02:30.264Z,78.19
2018-07-13T01:04:59.620Z,78.03
2018-07-13T01:07:28.856Z,78.89
2018-07-13T01:09:58.146Z,78.64
2018-07-13T01:12:27.488Z,78.85
2018-07-13T01:14:56.783Z,79.32
2018-07-13T01:17:26.177Z,79.33
2018-07-13T01:19:55.491Z,80.24
2018-07-13T01:22:24.762Z,80.01
2018-07-13T01:24:54.142Z,80.07
2018-07-13T01:27:26.927Z,79.68
2018-07-13T01:29:56.759Z,80.12
2018-07-13T01:32:26.118Z,81.40
2018-07-13T01:34:55.473Z,81.16
2018-07-13T01:37:24.736Z,80.81
2018-07-13T01:39:54.031Z,81.43
2018-07-13T01:42:23.317Z,81.70
2018-07-13T01:44:52.612Z,81.36
2018-07-13T01:47:21.855Z,81.30
2018-07-13T01:49:51.092Z,81.20
2018-07-13T01:52:20.357Z,81.75
2018-07-13T01:54:49.642Z,81.56
2018-07-13T01:57:18.895Z,81.78
2018-07-13T01:59:48.427Z,82.12
2018-07-13T02:02:17.949Z,82.67
2018-07-13T02:04:47.339Z,82.17
2018-07-13T02:07:16.629Z,82.49
2018-07-13T02:09:45.869Z,83.64
2018-07-13T02:12:16.196Z,83.44
2018-07-13T02:14:45.456Z,83.86
2018-07-13T02:17:14.710Z,83.86
2018-07-13T02:19:44.075Z,83.79
2018-07-13T02:22:13.530Z,83.84
2018-07-13T02:24:42.942Z,83.16
2018-07-13T02:27:12.230Z,83.24
2018-07-13T02:29:41.611Z,82.29
2018-07-13T02:32:10.953Z,82.76
2018-07-13T02:34:40.255Z,83.06
2018-07-13T02:37:09.635Z,83.02
2018-07-13T02:39:38.971Z,82.54
2018-07-13T02:42:08.309Z,82.85
2018-07-13T02:44:37.624Z,83.38
2018-07-13T02:47:07.046Z,82.95
2018-07-13T02:49:36.331Z,82.66
2018-07-13T02:52:05.732Z,83.24
2018-07-13T02:54:35.068Z,83.52
2018-07-13T02:57:04.395Z,83.11
2018-07-13T02:59:33.709Z,83.85
2018-07-13T03:02:02.981Z,83.44
2018-07-13T03:04:32.317Z,84.29
2018-07-13T03:07:01.563Z,84.13
2018-07-13T03:09:30.852Z,83.66
2018-07-13T03:11:59.915Z,84.71
2018-07-13T03:14:29.185Z,84.22
2018-07-13T03:16:58.431Z,84.51
2018-07-13T03:19:27.725Z,83.83
2018-07-13T03:21:56.984Z,83.47
2018-07-13T03:24:26.230Z,84.09
2018-07-13T03:26:55.495Z,84.55
2018-07-13T03:29:24.822Z,84.48
2018-07-13T03:31:54.276Z,85.21
2018-07-13T03:34:23.404Z,85.13
2018-07-13T03:36:53.054Z,84.64
2018-07-13T03:39:22.320Z,84.66
2018-07-13T03:41:51.563Z,85.08
2018-07-13T03:44:20.833Z,85.09
2018-07-13T03:46:50.181Z,85.46
2018-07-13T03:49:19.486Z,85.34
2018-07-13T03:51:48.807Z,84.82
2018-07-13T03:54:18.161Z,85.89
2018-07-13T03:56:47.328Z,86.01
2018-07-13T03:59:16.588Z,85.55
2018-07-13T04:01:45.865Z,85.52
2018-07-13T04:04:16.194Z,85.33
2018-07-13T04:06:45.419Z,85.76
2018-07-13T04:09:14.710Z,86.03
2018-07-13T04:11:43.983Z,85.65
2018-07-13T04:14:13.250Z,85.41
2018-07-13T04:16:42.558Z,85.61
2018-07-13T04:19:11.675Z,86.11
2018-07-13T04:21:40.992Z,85.55
2018-07-13T04:24:10.360Z,85.63
2018-07-13T04:26:40.529Z,84.86
2018-07-13T04:29:09.921Z,84.45
2018-07-13T04:31:39.354Z,84.83
2018-07-13T04:34:08.800Z,83.71
2018-07-13T04:36:38.131Z,82.48
2018-07-13T04:39:10.813Z,81.03
2018-07-13T04:41:40.214Z,81.04
2018-07-13T04:44:09.736Z,80.72
2018-07-13T04:46:39.149Z,81.10
2018-07-13T04:49:08.485Z,80.79
2018-07-13T04:51:37.839Z,80.65
2018-07-13T04:54:07.287Z,80.39
2018-07-13T04:56:36.668Z,80.11
2018-07-13T04:59:06.137Z,79.91
2018-07-13T05:01:35.460Z,79.85
2018-07-13T05:04:04.943Z,79.12
2018-07-13T05:06:34.579Z,78.58
2018-07-13T05:09:04.172Z,77.48
2018-07-13T05:11:33.390Z,77.08
2018-07-13T05:14:02.738Z,76.73
2018-07-13T05:16:32.000Z,74.88
2018-07-13T05:19:01.305Z,74.49
2018-07-13T05:21:30.575Z,74.07
2018-07-13T05:23:59.851Z,73.61
2018-07-13T05:26:29.417Z,73.26
2018-07-13T05:28:58.835Z,71.32
2018-07-13T05:31:28.133Z,72.22
2018-07-13T05:33:57.425Z,70.59
2018-07-13T05:36:26.697Z,70.16
2018-07-13T05:38:55.967Z,68.82
2018-07-13T05:41:25.287Z,68.97
2018-07-13T05:43:54.651Z,67.93
2018-07-13T05:46:24.032Z,67.75
2018-07-13T05:48:53.320Z,67.06
2018-07-13T05:51:22.629Z,66.71
2018-07-13T05:53:51.918Z,64.80
2018-07-13T05:56:21.286Z,64.76
2018-07-13T05:58:50.618Z,64.37
2018-07-13T06:01:20.057Z,63.11
2018-07-13T06:03:49.738Z,62.54
2018-07-13T06:06:19.037Z,63.43
2018-07-13T06:08:48.162Z,62.52
2018-07-13T06:11:17.569Z,62.54
2018-07-13T06:13:46.811Z,62.20
2018-07-13T06:16:16.125Z,61.15
2018-07-13T06:18:45.420Z,59.82
2018-07-13T06:21:14.718Z,59.85
2018-07-13T06:23:44.001Z,58.84
2018-07-13T06:26:13.289Z,58.36
2018-07-13T06:28:42.644Z,57.90
2018-07-13T06:31:11.963Z,57.32
2018-07-13T06:33:41.235Z,56.78
2018-07-13T06:36:10.727Z,57.09
2018-07-13T06:38:40.055Z,56.80
2018-07-13T06:41:09.562Z,55.17
2018-07-13T06:43:38.932Z,53.41
2018-07-13T06:46:08.831Z,52.61
2018-07-13T06:48:38.330Z,51.91
2018-07-13T06:51:07.621Z,51.22
2018-07-13T06:53:37.036Z,48.91
2018-07-13T06:56:06.334Z,49.38
2018-07-13T06:58:52.307Z,49.01
2018-07-13T07:01:21.649Z,47.56
2018-07-13T07:05:03.543Z,46.93
2018-07-13T07:07:32.819Z,46.53
2018-07-13T07:10:02.059Z,47.08
2018-07-13T07:12:56.145Z,45.34
2018-07-13T07:15:25.816Z,45.03
2018-07-13T07:17:55.568Z,43.81
2018-07-13T07:20:24.923Z,44.36
2018-07-13T07:22:54.217Z,42.73
2018-07-13T07:25:23.482Z,42.13
2018-07-13T07:27:52.811Z,41.52
2018-07-13T07:30:22.083Z,40.59
2018-07-13T07:32:51.353Z,39.29
2018-07-13T07:35:20.745Z,39.62
2018-07-13T07:37:50.012Z,39.41
2018-07-13T07:40:19.309Z,37.10
2018-07-13T07:42:48.560Z,35.61
2018-07-13T07:45:17.883Z,36.00
2018-07-13T07:47:47.108Z,37.56
2018-07-13T07:50:16.471Z,35.73
2018-07-13T07:52:45.739Z,35.84
2018-07-13T07:55:15.025Z,37.01
2018-07-13T07:57:44.863Z,36.37
2018-07-13T08:00:14.155Z,37.40
2018-07-13T08:02:43.430Z,36.33
2018-07-13T08:05:12.747Z,37.84
2018-07-13T08:07:42.198Z,35.93
2018-07-13T08:10:11.421Z,35.92
2018-07-13T08:12:40.744Z,35.53
2018-07-13T08:15:10.137Z,35.78
2018-07-13T08:17:39.523Z,35.83
2018-07-13T08:20:08.996Z,35.06
2018-07-13T08:22:45.467Z,34.79
2018-07-13T08:25:15.304Z,34.25
2018-07-13T08:27:46.277Z,35.13
2018-07-13T08:30:25.848Z,34.75
2018-07-13T08:32:55.296Z,34.82
2018-07-13T08:35:24.613Z,33.45
2018-07-13T08:37:53.990Z,35.41
2018-07-13T08:40:23.243Z,34.76
2018-07-13T08:42:52.705Z,34.01
2018-07-13T08:45:21.998Z,34.58
2018-07-13T08:47:51.347Z,34.46
2018-07-13T08:50:20.680Z,34.76
2018-07-13T08:52:50.000Z,33.47
2018-07-13T08:55:19.304Z,33.35
2018-07-13T08:57:49.363Z,35.10
2018-07-13T09:00:18.661Z,34.48
2018-07-13T09:02:47.936Z,34.18
2018-07-13T09:05:17.255Z,33.31
2018-07-13T09:07:46.545Z,32.52
2018-07-13T09:10:15.897Z,32.95
2018-07-13T09:12:45.185Z,32.71
2018-07-13T09:15:14.983Z,31.31
2018-07-13T09:17:44.291Z,31.88
2018-07-13T09:20:14.211Z,33.22
2018-07-13T09:22:43.544Z,34.62
2018-07-13T09:25:12.952Z,34.08
2018-07-13T09:27:42.249Z,32.50
2018-07-13T09:30:12.235Z,32.93
2018-07-13T09:32:41.706Z,31.78
2018-07-13T09:35:11.203Z,33.33
2018-07-13T09:37:41.704Z,33.04
2018-07-13T09:40:11.095Z,32.59
2018-07-13T09:42:40.446Z,31.52
2018-07-13T09:45:09.932Z,30.83
2018-07-13T09:47:39.346Z,30.69
2018-07-13T09:50:08.668Z,31.29
2018-07-13T09:52:38.174Z,30.87
2018-07-13T09:55:07.825Z,28.90
2018-07-13T09:57:37.387Z,28.51
2018-07-13T10:00:07.105Z,28.99
2018-07-13T10:02:36.437Z,28.66
2018-07-13T10:05:05.834Z,28.01
2018-07-13T10:07:35.194Z,28.25
2018-07-13T10:10:04.592Z,28.54
2018-07-13T10:12:34.023Z,28.87
2018-07-13T10:15:03.308Z,29.03
2018-07-13T10:17:32.621Z,28.66
2018-07-13T10:20:01.885Z,27.97
2018-07-13T10:22:31.903Z,29.29
2018-07-13T10:25:03.408Z,30.03
2018-07-13T10:27:35.858Z,28.88
2018-07-13T10:30:06.914Z,29.65
2018-07-13T10:32:36.434Z,29.28
2018-07-13T10:35:08.235Z,27.88
2018-07-13T10:37:37.946Z,27.81
2018-07-13T10:40:07.441Z,27.80
2018-07-13T10:42:36.903Z,27.44
2018-07-13T10:45:06.350Z,27.89
2018-07-13T10:47:35.759Z,27.01
2018-07-13T10:50:05.178Z,27.18
2018-07-13T10:52:34.785Z,25.78
2018-07-13T10:55:04.050Z,25.86
2018-07-13T10:57:33.356Z,26.91
2018-07-13T11:00:02.685Z,26.12
2018-07-13T11:02:31.985Z,27.22
2018-07-13T11:05:01.280Z,27.06
2018-07-13T11:07:30.601Z,26.32
2018-07-13T11:09:59.931Z,26.48
2018-07-13T11:12:29.203Z,25.71
2018-07-13T11:14:58.487Z,25.93
2018-07-13T11:17:27.848Z,26.70
2018-07-13T11:19:57.161Z,27.25
2018-07-13T11:22:26.504Z,26.19
2018-07-13T11:24:55.752Z,26.07
2018-07-13T11:27:25.100Z,25.28
2018-07-13T11:29:54.509Z,25.10
2018-07-13T11:32:23.841Z,25.30
2018-07-13T11:34:53.180Z,25.26
2018-07-13T11:37:22.687Z,25.87
2018-07-13T11:39:51.824Z,25.21
2018-07-13T11:42:21.106Z,26.52
2018-07-13T11:44:50.439Z,25.31
2018-07-13T11:47:19.973Z,24.99
2018-07-13T11:49:49.342Z,26.40
2018-07-13T11:52:18.780Z,24.94
2018-07-13T11:54:48.094Z,25.45
2018-07-13T11:57:17.344Z,24.49
2018-07-13T11:59:46.691Z,24.99
2018-07-13T12:02:15.956Z,25.92
2018-07-13T12:04:45.205Z,25.47
2018-07-13T12:07:14.577Z,24.65
2018-07-13T12:09:43.998Z,26.22
2018-07-13T12:12:13.244Z,25.18
2018-07-13T12:14:42.548Z,24.53
2018-07-13T12:17:11.938Z,24.91
2018-07-13T12:19:41.229Z,26.62
2018-07-13T12:22:10.539Z,26.00
2018-07-13T12:24:39.906Z,24.75
2018-07-13T12:27:09.317Z,24.25
2018-07-13T12:29:38.771Z,24.08
2018-07-13T12:32:08.166Z,24.76
2018-07-13T12:34:37.513Z,24.59
2018-07-13T12:37:06.833Z,23.64
2018-07-13T12:39:36.234Z,24.81
2018-07-13T12:42:05.531Z,24.82
2018-07-13T12:44:34.886Z,23.59
2018-07-13T12:47:04.120Z,26.10
2018-07-13T12:49:33.381Z,23.82
2018-07-13T12:52:02.748Z,24.46
2018-07-13T12:54:32.009Z,24.84
2018-07-13T12:57:01.285Z,26.41
2018-07-13T12:59:30.598Z,25.25
2018-07-13T13:01:59.877Z,25.91
2018-07-13T13:04:29.091Z,24.56
2018-07-13T13:06:58.405Z,23.50
2018-07-13T13:09:27.434Z,22.84
2018-07-13T13:11:56.697Z,25.67
2018-07-13T13:14:26.011Z,25.42
2018-07-13T13:16:55.309Z,25.44
2018-07-13T13:19:24.613Z,23.67
2018-07-13T13:21:53.967Z,23.43
2018-07-13T13:24:23.226Z,23.95
2018-07-13T13:26:52.486Z,24.29
2018-07-13T13:29:21.948Z,24.66
2018-07-13T13:31:51.057Z,26.27
2018-07-13T13:34:20.304Z,25.01
2018-07-13T13:36:49.539Z,24.13
2018-07-13T13:39:18.833Z,24.22
2018-07-13T13:41:48.217Z,24.80
2018-07-13T13:44:17.527Z,24.90
2018-07-13T13:46:46.942Z,25.41
2018-07-13T13:49:16.341Z,23.91
2018-07-13T13:51:45.641Z,23.80
2018-07-13T13:54:15.177Z,25.02
2018-07-13T13:56:44.427Z,26.01
2018-07-13T13:59:13.733Z,25.90
2018-07-13T14:01:43.006Z,25.46
2018-07-13T14:04:12.458Z,25.05
2018-07-13T14:06:41.788Z,25.08
2018-07-13T14:09:11.195Z,25.55
2018-07-13T14:11:40.532Z,26.09
2018-07-13T14:14:09.919Z,26.32
2018-07-13T14:16:39.236Z,25.18
2018-07-13T14:19:08.653Z,25.10
2018-07-13T14:21:37.848Z,25.73
2018-07-13T14:24:14.030Z,26.42
2018-07-13T14:26:43.333Z,26.06
2018-07-13T14:29:12.612Z,26.93
2018-07-13T14:31:41.930Z,25.09
2018-07-13T14:34:11.491Z,26.66
2018-07-13T14:36:40.757Z,26.29
2018-07-13T14:39:11.056Z,26.23
2018-07-13T14:41:40.405Z,27.71
2018-07-13T14:44:09.987Z,27.31
2018-07-13T14:46:39.408Z,27.88
2018-07-13T14:49:08.971Z,28.00
2018-07-13T14:51:38.277Z,28.45
2018-07-13T14:54:07.742Z,27.53
2018-07-13T14:56:37.054Z,26.59
2018-07-13T14:59:06.366Z,28.88
2018-07-13T15:01:35.721Z,28.75
2018-07-13T15:04:05.050Z,29.95
2018-07-13T15:06:34.460Z,30.88
2018-07-13T15:09:03.955Z,31.19
2018-07-13T15:11:33.264Z,30.15
2018-07-13T15:14:02.548Z,31.05
2018-07-13T15:16:31.859Z,29.24
2018-07-13T15:19:01.146Z,30.66
2018-07-13T15:21:30.442Z,29.71
2018-07-13T15:23:59.837Z,29.07
2018-07-13T15:26:29.273Z,30.18
2018-07-13T15:28:58.583Z,29.62
2018-07-13T15:31:27.928Z,29.17
2018-07-13T15:33:57.295Z,30.42
2018-07-13T15:36:26.722Z,30.13
2018-07-13T15:38:56.025Z,30.06
2018-07-13T15:41:25.279Z,30.18
2018-07-13T15:43:54.628Z,30.22
2018-07-13T15:46:23.917Z,30.98
2018-07-13T15:48:53.181Z,29.88
2018-07-13T15:51:22.452Z,30.41
2018-07-13T15:53:51.820Z,31.30
2018-07-13T15:56:20.835Z,31.99
2018-07-13T15:58:50.127Z,31.42
2018-07-13T16:01:19.461Z,32.83
2018-07-13T16:03:48.874Z,31.37
2018-07-13T16:06:18.200Z,30.30
2018-07-13T16:08:47.511Z,30.65
2018-07-13T16:11:16.823Z,30.03
2018-07-13T16:13:46.243Z,31.64
2018-07-13T16:16:15.779Z,30.51
2018-07-13T16:18:45.008Z,30.86
2018-07-13T16:21:14.259Z,31.83
2018-07-13T16:23:43.549Z,32.00
2018-07-13T16:26:12.934Z,33.18
2018-07-13T16:28:43.217Z,31.39
2018-07-13T16:31:12.547Z,32.20
2018-07-13T16:33:42.421Z,32.96
2018-07-13T16:36:11.954Z,32.73
2018-07-13T16:38:41.614Z,31.70
2018-07-13T16:41:10.977Z,32.05
2018-07-13T16:43:40.586Z,33.11
2018-07-13T16:46:10.086Z,33.60
2018-07-13T16:48:39.460Z,32.52
2018-07-13T16:51:08.911Z,31.64
2018-07-13T16:53:38.359Z,32.78
2018-07-13T16:56:08.225Z,32.41
2018-07-13T16:58:37.775Z,32.90
2018-07-13T17:01:07.274Z,32.71
2018-07-13T17:03:36.556Z,32.18
2018-07-13T17:06:06.075Z,32.34
2018-07-13T17:08:35.319Z,34.21
2018-07-13T17:11:04.606Z,31.82
2018-07-13T17:13:33.921Z,32.49
2018-07-13T17:16:03.196Z,32.27
2018-07-13T17:18:32.511Z,33.29
2018-07-13T17:21:01.790Z,33.63
2018-07-13T17:23:31.061Z,33.17
2018-07-13T17:26:00.982Z,32.53
2018-07-13T17:28:30.459Z,33.38
2018-07-13T17:30:59.693Z,33.42
2018-07-13T17:33:29.074Z,34.22
2018-07-13T17:35:58.467Z,33.99
2018-07-13T17:38:29.137Z,34.11
2018-07-13T17:40:59.186Z,33.80
2018-07-13T17:43:28.597Z,35.14
2018-07-13T17:45:57.953Z,34.63
2018-07-13T17:48:27.207Z,35.26
2018-07-13T17:50:56.557Z,34.93
2018-07-13T17:53:25.931Z,34.30
2018-07-13T17:55:55.305Z,35.23
2018-07-13T17:58:24.595Z,35.16
2018-07-13T18:00:54.037Z,35.97
2018-07-13T18:03:23.351Z,36.51
2018-07-13T18:05:52.587Z,35.08
2018-07-13T18:08:21.875Z,35.53
2018-07-13T18:10:51.178Z,36.56
2018-07-13T18:13:20.640Z,36.45
2018-07-13T18:15:49.997Z,36.41
2018-07-13T18:18:25.211Z,35.76
2018-07-13T18:20:57.286Z,36.63
2018-07-13T18:23:26.878Z,37.39
2018-07-13T18:25:56.291Z,36.54
2018-07-13T18:28:25.882Z,37.14
2018-07-13T18:30:55.296Z,37.65
2018-07-13T18:33:24.671Z,38.44
2018-07-13T18:35:54.104Z,39.65
2018-07-13T18:38:23.504Z,40.19
2018-07-13T18:40:52.816Z,39.41
2018-07-13T18:43:22.121Z,38.63
2018-07-13T18:45:51.537Z,38.86
2018-07-13T18:48:20.602Z,39.77
2018-07-13T18:50:49.952Z,37.21
2018-07-13T18:53:19.291Z,39.56
2018-07-13T18:55:48.604Z,37.49
2018-07-13T19:01:15.952Z,36.49
2018-07-13T19:03:45.540Z,36.14
2018-07-13T19:06:15.155Z,36.37
2018-07-13T19:08:44.630Z,35.37
2018-07-13T19:11:14.023Z,35.33
2018-07-13T19:13:43.616Z,34.86
2018-07-13T19:16:13.245Z,36.80
2018-07-13T19:18:42.746Z,36.40
2018-07-13T19:21:12.084Z,36.13
2018-07-13T19:23:41.611Z,36.06
2018-07-13T19:26:11.193Z,36.02
2018-07-13T19:28:41.456Z,36.96
2018-07-13T19:31:12.236Z,35.62
2018-07-13T19:33:41.723Z,36.57
2018-07-13T19:36:11.839Z,37.11
2018-07-13T19:38:45.189Z,36.57
2018-07-13T19:41:15.116Z,38.03
2018-07-13T19:43:44.366Z,38.81
2018-07-13T19:46:13.999Z,37.79
2018-07-13T19:48:43.379Z,38.29
2018-07-13T19:51:12.898Z,38.56
2018-07-13T19:53:42.217Z,39.33
2018-07-13T19:56:11.825Z,39.45
2018-07-13T19:58:41.124Z,40.39
2018-07-13T20:01:10.549Z,40.83
2018-07-13T20:03:39.788Z,41.57
2018-07-13T20:06:09.219Z,40.83
2018-07-13T20:08:38.571Z,41.38
2018-07-13T20:11:08.413Z,42.53
2018-07-13T20:13:38.137Z,43.44
2018-07-13T20:16:07.478Z,42.64
2018-07-13T20:18:36.794Z,43.20
2018-07-13T20:21:06.229Z,44.02
2018-07-13T20:23:35.531Z,44.87
2018-07-13T20:26:04.998Z,44.87
2018-07-13T20:28:34.336Z,44.62
2018-07-13T20:31:03.740Z,44.67
2018-07-13T20:33:33.106Z,45.08
2018-07-13T20:36:02.522Z,45.41
2018-07-13T20:38:31.957Z,46.62
2018-07-13T20:41:01.648Z,46.62
2018-07-13T20:43:31.069Z,47.27
2018-07-13T20:46:00.479Z,47.24
2018-07-13T20:48:29.806Z,47.50
2018-07-13T20:50:59.206Z,48.22
2018-07-13T20:53:28.626Z,48.09
2018-07-13T20:55:58.042Z,48.89
2018-07-13T20:58:27.310Z,48.93
2018-07-13T21:00:56.676Z,50.65
2018-07-13T21:03:25.950Z,51.23
2018-07-13T21:05:55.206Z,50.87
2018-07-13T21:08:24.470Z,52.05
2018-07-13T21:10:53.804Z,52.40
2018-07-13T21:13:23.210Z,51.93
2018-07-13T21:15:52.559Z,52.60
2018-07-13T21:18:21.843Z,52.63
2018-07-13T21:20:51.240Z,52.08
2018-07-13T21:23:20.607Z,52.24
2018-07-13T21:25:49.912Z,52.80
2018-07-13T21:28:19.544Z,51.70
2018-07-13T21:30:48.960Z,53.84
2018-07-13T21:33:18.068Z,52.07
2018-07-13T21:35:47.407Z,52.09
2018-07-13T21:38:16.716Z,53.33
2018-07-13T21:40:46.115Z,52.81
2018-07-13T21:43:15.410Z,52.66
2018-07-13T21:45:44.746Z,52.84
2018-07-13T21:48:14.036Z,53.44
2018-07-13T21:50:43.369Z,53.23
2018-07-13T21:53:12.678Z,54.24
2018-07-13T21:55:42.164Z,53.76
2018-07-13T21:58:11.483Z,53.14
2018-07-13T22:00:40.858Z,54.97
2018-07-13T22:03:10.224Z,54.43
2018-07-13T22:05:39.597Z,53.76
2018-07-13T22:08:09.094Z,54.71
2018-07-13T22:10:38.611Z,55.42
2018-07-13T22:13:08.457Z,55.74
2018-07-13T22:15:37.838Z,54.48
2018-07-13T22:18:07.480Z,53.60
2018-07-13T22:20:36.826Z,54.33
2018-07-13T22:23:07.759Z,55.29
2018-07-13T22:25:37.270Z,54.76
2018-07-13T22:28:06.799Z,54.92
2018-07-13T22:30:37.137Z,56.32
2018-07-13T22:33:07.226Z,55.48
2018-07-13T22:35:36.973Z,55.93
2018-07-13T22:38:06.431Z,56.97
2018-07-13T22:40:35.888Z,56.73
2018-07-13T22:43:05.292Z,57.33
2018-07-13T22:45:34.785Z,57.81
2018-07-13T22:48:04.177Z,58.21
2018-07-13T22:50:33.678Z,57.91
2018-07-13T22:53:02.895Z,58.58
2018-07-13T22:55:32.284Z,57.84
2018-07-13T22:58:01.869Z,58.60
2018-07-13T23:00:31.273Z,59.39
2018-07-13T23:03:00.711Z,58.73
2018-07-13T23:05:30.146Z,59.41
2018-07-13T23:07:59.695Z,59.38
2018-07-13T23:10:28.873Z,59.87
2018-07-13T23:12:58.239Z,59.94
2018-07-13T23:15:27.863Z,60.60
2018-07-13T23:17:57.213Z,60.73
2018-07-13T23:20:26.788Z,60.44
2018-07-13T23:22:56.092Z,60.64
2018-07-13T23:25:26.334Z,60.60
2018-07-13T23:27:55.632Z,60.65
2018-07-13T23:30:24.899Z,61.32
2018-07-13T23:32:54.319Z,61.59
2018-07-13T23:35:23.621Z,62.10
2018-07-13T23:37:53.221Z,61.71
2018-07-13T23:40:22.845Z,62.32
2018-07-13T23:42:52.149Z,62.70
2018-07-13T23:45:21.567Z,62.54
2018-07-13T23:47:50.877Z,63.20
2018-07-13T23:50:20.246Z,63.11
2018-07-13T23:52:49.715Z,62.64
2018-07-13T23:55:18.865Z,63.52
2018-07-13T23:57:48.194Z,63.49
